sensor_id;sensor_type;location;lat;lon;timestamp;pressure;altitude;pressure_sealevel;temperature;humidity
36190;BME280;22232;50.914;13.858;2023-02-19T00:01:38;97684.75;;;8.45;100.00
36190;BME280;22232;50.914;13.858;2023-02-19T00:04:10;97687.91;;;8.35;100.00
36190;BME280;22232;50.914;13.858;2023-02-19T00:06:40;97675.22;;;8.37;100.00
36190;BME280;22232;50.914;13.858;2023-02-19T00:09:10;97674.19;;;8.38;100.00
36190;BME280;22232;50.914;13.858;2023-02-19T00:11:38;97668.94;;;8.32;100.00
36190;BME280;22232;50.914;13.858;2023-02-19T00:14:06;97664.41;;;8.32;100.00
36190;BME280;22232;50.914;13.858;2023-02-19T00:16:36;97658.38;;;8.25;100.00
36190;BME280;22232;50.914;13.858;2023-02-19T00:19:06;97655.97;;;8.17;100.00
36190;BME280;22232;50.914;13.858;2023-02-19T00:21:34;97665.75;;;8.23;100.00
36190;BME280;22232;50.914;13.858;2023-02-19T00:24:03;97668.47;;;8.16;100.00
36190;BME280;22232;50.914;13.858;2023-02-19T00:26:32;97663.94;;;8.17;100.00
36190;BME280;22232;50.914;13.858;2023-02-19T00:29:00;97653.53;;;8.15;100.00
36190;BME280;22232;50.914;13.858;2023-02-19T00:31:32;97663.88;;;8.23;100.00
36190;BME280;22232;50.914;13.858;2023-02-19T00:34:02;97654.88;;;8.24;100.00
36190;BME280;22232;50.914;13.858;2023-02-19T00:36:32;97651.22;;;8.25;100.00
36190;BME280;22232;50.914;13.858;2023-02-19T00:39:03;97656.28;;;8.27;100.00
36190;BME280;22232;50.914;13.858;2023-02-19T00:41:32;97647.50;;;8.26;100.00
36190;BME280;22232;50.914;13.858;2023-02-19T00:44:01;97662.19;;;8.29;100.00
36190;BME280;22232;50.914;13.858;2023-02-19T00:46:36;97644.31;;;8.18;100.00
36190;BME280;22232;50.914;13.858;2023-02-19T00:49:06;97652.88;;;8.20;100.00
36190;BME280;22232;50.914;13.858;2023-02-19T00:51:37;97654.75;;;8.19;100.00
36190;BME280;22232;50.914;13.858;2023-02-19T00:54:05;97648.63;;;8.19;100.00
36190;BME280;22232;50.914;13.858;2023-02-19T00:56:33;97649.78;;;8.23;100.00
36190;BME280;22232;50.914;13.858;2023-02-19T00:59:00;97642.91;;;8.15;100.00
36190;BME280;22232;50.914;13.858;2023-02-19T01:01:29;97645.78;;;8.14;100.00
36190;BME280;22232;50.914;13.858;2023-02-19T01:03:57;97642.97;;;8.09;100.00
36190;BME280;22232;50.914;13.858;2023-02-19T01:06:24;97643.41;;;8.05;100.00
36190;BME280;22232;50.914;13.858;2023-02-19T01:08:52;97639.41;;;7.96;100.00
36190;BME280;22232;50.914;13.858;2023-02-19T01:11:19;97631.75;;;7.88;100.00
36190;BME280;22232;50.914;13.858;2023-02-19T01:13:47;97629.66;;;7.90;100.00
36190;BME280;22232;50.914;13.858;2023-02-19T01:16:17;97625.66;;;7.81;100.00
36190;BME280;22232;50.914;13.858;2023-02-19T01:18:46;97616.75;;;7.69;100.00
36190;BME280;22232;50.914;13.858;2023-02-19T01:21:17;97621.22;;;7.75;100.00
36190;BME280;22232;50.914;13.858;2023-02-19T01:23:46;97605.72;;;7.72;100.00
36190;BME280;22232;50.914;13.858;2023-02-19T01:26:19;97606.75;;;7.71;100.00
36190;BME280;22232;50.914;13.858;2023-02-19T01:28:48;97599.22;;;7.68;100.00
36190;BME280;22232;50.914;13.858;2023-02-19T01:31:21;97598.84;;;7.64;100.00
36190;BME280;22232;50.914;13.858;2023-02-19T01:33:55;97604.97;;;7.65;100.00
36190;BME280;22232;50.914;13.858;2023-02-19T01:36:24;97601.72;;;7.63;100.00
36190;BME280;22232;50.914;13.858;2023-02-19T01:38:52;97600.09;;;7.62;100.00
36190;BME280;22232;50.914;13.858;2023-02-19T01:41:22;97596.03;;;7.59;100.00
36190;BME280;22232;50.914;13.858;2023-02-19T01:44:00;97593.44;;;7.52;100.00
36190;BME280;22232;50.914;13.858;2023-02-19T01:46:31;97586.88;;;7.55;100.00
36190;BME280;22232;50.914;13.858;2023-02-19T01:49:18;97588.94;;;7.53;100.00
36190;BME280;22232;50.914;13.858;2023-02-19T01:51:53;97579.34;;;7.52;100.00
36190;BME280;22232;50.914;13.858;2023-02-19T01:54:26;97571.97;;;7.54;100.00
36190;BME280;22232;50.914;13.858;2023-02-19T01:56:55;97568.72;;;7.52;100.00
36190;BME280;22232;50.914;13.858;2023-02-19T01:59:24;97561.22;;;7.49;100.00
36190;BME280;22232;50.914;13.858;2023-02-19T02:01:52;97565.09;;;7.46;100.00
36190;BME280;22232;50.914;13.858;2023-02-19T02:04:19;97565.91;;;7.47;100.00
36190;BME280;22232;50.914;13.858;2023-02-19T02:06:53;97561.84;;;7.44;100.00
36190;BME280;22232;50.914;13.858;2023-02-19T02:09:25;97557.34;;;7.45;100.00
36190;BME280;22232;50.914;13.858;2023-02-19T02:12:12;97558.22;;;7.39;100.00
36190;BME280;22232;50.914;13.858;2023-02-19T02:14:42;97562.72;;;7.38;100.00
36190;BME280;22232;50.914;13.858;2023-02-19T02:17:18;97550.84;;;7.41;100.00
36190;BME280;22232;50.914;13.858;2023-02-19T02:22:48;97550.25;;;7.39;100.00
36190;BME280;22232;50.914;13.858;2023-02-19T02:31:22;97542.16;;;7.33;100.00
36190;BME280;22232;50.914;13.858;2023-02-19T02:34:00;97538.03;;;7.38;100.00
36190;BME280;22232;50.914;13.858;2023-02-19T02:36:41;97525.19;;;7.34;100.00
36190;BME280;22232;50.914;13.858;2023-02-19T02:39:16;97523.56;;;7.33;100.00
36190;BME280;22232;50.914;13.858;2023-02-19T02:41:55;97519.50;;;7.31;100.00
36190;BME280;22232;50.914;13.858;2023-02-19T02:44:47;97515.44;;;7.28;100.00
36190;BME280;22232;50.914;13.858;2023-02-19T02:47:41;97512.34;;;7.31;100.00
36190;BME280;22232;50.914;13.858;2023-02-19T02:50:22;97501.75;;;7.31;100.00
36190;BME280;22232;50.914;13.858;2023-02-19T02:52:56;97502.00;;;7.23;100.00
36190;BME280;22232;50.914;13.858;2023-02-19T02:55:46;97499.97;;;7.25;100.00
36190;BME280;22232;50.914;13.858;2023-02-19T02:58:15;97493.25;;;7.23;100.00
36190;BME280;22232;50.914;13.858;2023-02-19T03:00:52;97499.19;;;7.18;100.00
36190;BME280;22232;50.914;13.858;2023-02-19T03:03:42;97488.19;;;7.15;100.00
36190;BME280;22232;50.914;13.858;2023-02-19T03:06:12;97480.69;;;7.11;100.00
36190;BME280;22232;50.914;13.858;2023-02-19T03:08:47;97472.56;;;7.06;100.00
36190;BME280;22232;50.914;13.858;2023-02-19T03:11:18;97471.91;;;7.11;100.00
36190;BME280;22232;50.914;13.858;2023-02-19T03:14:11;97473.59;;;7.05;100.00
36190;BME280;22232;50.914;13.858;2023-02-19T03:17:38;97477.66;;;7.08;100.00
36190;BME280;22232;50.914;13.858;2023-02-19T03:20:20;97483.19;;;7.06;100.00
36190;BME280;22232;50.914;13.858;2023-02-19T03:22:51;97472.34;;;7.08;100.00
36190;BME280;22232;50.914;13.858;2023-02-19T03:25:27;97480.13;;;7.03;100.00
36190;BME280;22232;50.914;13.858;2023-02-19T03:28:23;97468.13;;;7.00;100.00
36190;BME280;22232;50.914;13.858;2023-02-19T03:31:17;97470.81;;;6.94;100.00
36190;BME280;22232;50.914;13.858;2023-02-19T03:33:50;97462.66;;;6.95;100.00
36190;BME280;22232;50.914;13.858;2023-02-19T03:36:19;97461.84;;;6.95;100.00
36190;BME280;22232;50.914;13.858;2023-02-19T03:39:01;97458.97;;;6.96;100.00
36190;BME280;22232;50.914;13.858;2023-02-19T03:41:39;97462.84;;;6.94;100.00
36190;BME280;22232;50.914;13.858;2023-02-19T03:50:16;97459.78;;;6.97;100.00
36190;BME280;22232;50.914;13.858;2023-02-19T03:53:04;97442.69;;;6.93;100.00
36190;BME280;22232;50.914;13.858;2023-02-19T04:01:46;97446.81;;;6.88;100.00
36190;BME280;22232;50.914;13.858;2023-02-19T04:04:21;97429.06;;;6.89;100.00
36190;BME280;22232;50.914;13.858;2023-02-19T04:06:54;97433.31;;;6.90;100.00
36190;BME280;22232;50.914;13.858;2023-02-19T04:09:28;97431.47;;;6.90;100.00
36190;BME280;22232;50.914;13.858;2023-02-19T04:12:04;97421.91;;;6.89;100.00
36190;BME280;22232;50.914;13.858;2023-02-19T04:14:43;97420.06;;;6.90;100.00
36190;BME280;22232;50.914;13.858;2023-02-19T04:17:25;97416.63;;;6.89;100.00
36190;BME280;22232;50.914;13.858;2023-02-19T04:19:55;97415.00;;;6.88;100.00
36190;BME280;22232;50.914;13.858;2023-02-19T04:22:24;97420.06;;;6.90;100.00
36190;BME280;22232;50.914;13.858;2023-02-19T04:24:52;97416.97;;;6.93;100.00
36190;BME280;22232;50.914;13.858;2023-02-19T04:27:21;97418.41;;;6.96;100.00
36190;BME280;22232;50.914;13.858;2023-02-19T04:29:49;97415.97;;;6.94;100.00
36190;BME280;22232;50.914;13.858;2023-02-19T04:32:16;97419.06;;;6.91;100.00
36190;BME280;22232;50.914;13.858;2023-02-19T04:34:44;97412.50;;;6.94;100.00
36190;BME280;22232;50.914;13.858;2023-02-19T04:37:11;97413.31;;;6.94;100.00
36190;BME280;22232;50.914;13.858;2023-02-19T04:39:39;97411.91;;;6.92;100.00
36190;BME280;22232;50.914;13.858;2023-02-19T04:42:06;97402.13;;;6.92;100.00
36190;BME280;22232;50.914;13.858;2023-02-19T04:44:34;97396.81;;;6.92;100.00
36190;BME280;22232;50.914;13.858;2023-02-19T04:47:01;97394.53;;;6.96;100.00
36190;BME280;22232;50.914;13.858;2023-02-19T04:49:29;97392.50;;;6.98;100.00
36190;BME280;22232;50.914;13.858;2023-02-19T04:51:56;97400.16;;;7.06;100.00
36190;BME280;22232;50.914;13.858;2023-02-19T04:54:24;97398.34;;;7.06;100.00
36190;BME280;22232;50.914;13.858;2023-02-19T04:56:51;97383.97;;;7.14;100.00
36190;BME280;22232;50.914;13.858;2023-02-19T04:59:19;97382.91;;;7.15;100.00
36190;BME280;22232;50.914;13.858;2023-02-19T05:01:46;97391.28;;;7.19;100.00
36190;BME280;22232;50.914;13.858;2023-02-19T05:04:14;97382.88;;;7.22;100.00
36190;BME280;22232;50.914;13.858;2023-02-19T05:06:42;97369.81;;;7.20;100.00
36190;BME280;22232;50.914;13.858;2023-02-19T05:09:09;97367.94;;;7.27;100.00
36190;BME280;22232;50.914;13.858;2023-02-19T05:11:37;97367.34;;;7.25;100.00
36190;BME280;22232;50.914;13.858;2023-02-19T05:14:04;97367.69;;;7.29;100.00
36190;BME280;22232;50.914;13.858;2023-02-19T05:16:32;97365.03;;;7.29;100.00
36190;BME280;22232;50.914;13.858;2023-02-19T05:19:01;97357.44;;;7.32;100.00
36190;BME280;22232;50.914;13.858;2023-02-19T05:21:28;97352.03;;;7.27;100.00
36190;BME280;22232;50.914;13.858;2023-02-19T05:23:56;97346.28;;;7.30;100.00
36190;BME280;22232;50.914;13.858;2023-02-19T05:26:23;97356.66;;;7.32;100.00
36190;BME280;22232;50.914;13.858;2023-02-19T05:28:52;97353.19;;;7.31;100.00
36190;BME280;22232;50.914;13.858;2023-02-19T05:31:20;97356.19;;;7.35;100.00
36190;BME280;22232;50.914;13.858;2023-02-19T05:33:48;97364.84;;;7.30;100.00
36190;BME280;22232;50.914;13.858;2023-02-19T05:36:20;97367.06;;;7.33;100.00
36190;BME280;22232;50.914;13.858;2023-02-19T05:38:54;97388.78;;;7.42;100.00
36190;BME280;22232;50.914;13.858;2023-02-19T05:41:25;97401.38;;;7.47;100.00
36190;BME280;22232;50.914;13.858;2023-02-19T05:43:53;97396.88;;;7.47;100.00
36190;BME280;22232;50.914;13.858;2023-02-19T05:46:24;97394.50;;;7.39;100.00
36190;BME280;22232;50.914;13.858;2023-02-19T05:49:20;97401.00;;;7.25;100.00
36190;BME280;22232;50.914;13.858;2023-02-19T05:51:50;97401.88;;;7.19;100.00
36190;BME280;22232;50.914;13.858;2023-02-19T05:54:18;97412.97;;;7.09;100.00
36190;BME280;22232;50.914;13.858;2023-02-19T05:56:45;97419.25;;;7.15;100.00
36190;BME280;22232;50.914;13.858;2023-02-19T05:59:19;97418.94;;;7.04;100.00
36190;BME280;22232;50.914;13.858;2023-02-19T06:01:48;97421.22;;;7.01;100.00
36190;BME280;22232;50.914;13.858;2023-02-19T06:04:16;97434.91;;;6.98;100.00
36190;BME280;22232;50.914;13.858;2023-02-19T06:06:46;97423.69;;;6.96;100.00
36190;BME280;22232;50.914;13.858;2023-02-19T06:09:14;97422.66;;;6.97;100.00
36190;BME280;22232;50.914;13.858;2023-02-19T06:11:42;97433.94;;;6.92;100.00
36190;BME280;22232;50.914;13.858;2023-02-19T06:14:13;97438.63;;;6.90;100.00
36190;BME280;22232;50.914;13.858;2023-02-19T06:16:41;97452.50;;;6.92;100.00
36190;BME280;22232;50.914;13.858;2023-02-19T06:19:08;97452.25;;;6.94;100.00
36190;BME280;22232;50.914;13.858;2023-02-19T06:21:36;97454.72;;;6.95;100.00
36190;BME280;22232;50.914;13.858;2023-02-19T06:24:08;97454.72;;;6.95;100.00
36190;BME280;22232;50.914;13.858;2023-02-19T06:26:36;97465.31;;;6.95;100.00
36190;BME280;22232;50.914;13.858;2023-02-19T06:29:04;97462.72;;;6.88;100.00
36190;BME280;22232;50.914;13.858;2023-02-19T06:31:32;97468.81;;;6.89;100.00
36190;BME280;22232;50.914;13.858;2023-02-19T06:34:03;97468.03;;;6.88;100.00
36190;BME280;22232;50.914;13.858;2023-02-19T06:36:31;97472.28;;;6.89;100.00
36190;BME280;22232;50.914;13.858;2023-02-19T06:38:59;97469.44;;;6.91;100.00
36190;BME280;22232;50.914;13.858;2023-02-19T06:41:27;97465.75;;;6.92;100.00
36190;BME280;22232;50.914;13.858;2023-02-19T06:43:56;97477.16;;;6.93;100.00
36190;BME280;22232;50.914;13.858;2023-02-19T06:46:24;97468.41;;;6.92;100.00
36190;BME280;22232;50.914;13.858;2023-02-19T06:48:51;97474.69;;;6.98;100.00
36190;BME280;22232;50.914;13.858;2023-02-19T06:51:19;97471.25;;;6.90;100.00
36190;BME280;22232;50.914;13.858;2023-02-19T06:53:50;97476.53;;;6.90;100.00
36190;BME280;22232;50.914;13.858;2023-02-19T06:56:37;97488.38;;;6.95;100.00
36190;BME280;22232;50.914;13.858;2023-02-19T06:59:11;97478.81;;;6.87;100.00
36190;BME280;22232;50.914;13.858;2023-02-19T07:01:39;97481.03;;;6.90;100.00
36190;BME280;22232;50.914;13.858;2023-02-19T07:04:06;97484.50;;;6.90;100.00
36190;BME280;22232;50.914;13.858;2023-02-19T07:06:34;97483.53;;;6.85;100.00
36190;BME280;22232;50.914;13.858;2023-02-19T07:09:04;97492.72;;;6.82;100.00
36190;BME280;22232;50.914;13.858;2023-02-19T07:11:32;97490.91;;;6.83;100.00
36190;BME280;22232;50.914;13.858;2023-02-19T07:14:03;97487.44;;;6.82;100.00
36190;BME280;22232;50.914;13.858;2023-02-19T07:16:30;97491.31;;;6.80;100.00
36190;BME280;22232;50.914;13.858;2023-02-19T07:18:59;97497.22;;;6.82;100.00
36190;BME280;22232;50.914;13.858;2023-02-19T07:21:27;97502.31;;;6.83;100.00
36190;BME280;22232;50.914;13.858;2023-02-19T07:23:56;97507.84;;;6.82;100.00
36190;BME280;22232;50.914;13.858;2023-02-19T07:26:23;97518.22;;;6.83;100.00
36190;BME280;22232;50.914;13.858;2023-02-19T07:28:51;97522.88;;;6.88;100.00
36190;BME280;22232;50.914;13.858;2023-02-19T07:31:20;97528.75;;;6.90;100.00
36190;BME280;22232;50.914;13.858;2023-02-19T07:33:49;97533.63;;;6.93;100.00
36190;BME280;22232;50.914;13.858;2023-02-19T07:36:18;97533.63;;;6.93;100.00
36190;BME280;22232;50.914;13.858;2023-02-19T07:38:46;97542.19;;;6.95;100.00
36190;BME280;22232;50.914;13.858;2023-02-19T07:41:13;97536.66;;;7.03;100.00
36190;BME280;22232;50.914;13.858;2023-02-19T07:43:41;97540.88;;;7.11;100.00
36190;BME280;22232;50.914;13.858;2023-02-19T07:46:10;97546.81;;;7.06;100.00
36190;BME280;22232;50.914;13.858;2023-02-19T07:48:41;97555.78;;;7.05;100.00
36190;BME280;22232;50.914;13.858;2023-02-19T07:51:17;97551.34;;;6.99;100.00
36190;BME280;22232;50.914;13.858;2023-02-19T07:53:46;97551.78;;;6.96;100.00
36190;BME280;22232;50.914;13.858;2023-02-19T07:56:14;97553.41;;;6.97;100.00
36190;BME280;22232;50.914;13.858;2023-02-19T07:58:42;97563.41;;;6.95;100.00
36190;BME280;22232;50.914;13.858;2023-02-19T08:01:14;97572.66;;;6.86;100.00
36190;BME280;22232;50.914;13.858;2023-02-19T08:03:43;97582.41;;;6.92;100.00
36190;BME280;22232;50.914;13.858;2023-02-19T08:06:11;97575.91;;;6.88;100.00
36190;BME280;22232;50.914;13.858;2023-02-19T08:08:39;97585.00;;;6.60;100.00
36190;BME280;22232;50.914;13.858;2023-02-19T08:11:06;97605.00;;;6.50;100.00
36190;BME280;22232;50.914;13.858;2023-02-19T08:13:52;97611.41;;;6.22;100.00
36190;BME280;22232;50.914;13.858;2023-02-19T08:16:20;97611.03;;;5.98;100.00
36190;BME280;22232;50.914;13.858;2023-02-19T08:19:07;97624.28;;;5.85;100.00
36190;BME280;22232;50.914;13.858;2023-02-19T08:21:34;97624.88;;;5.74;100.00
36190;BME280;22232;50.914;13.858;2023-02-19T08:24:02;97641.38;;;5.69;100.00
36190;BME280;22232;50.914;13.858;2023-02-19T08:26:29;97655.03;;;5.66;100.00
36190;BME280;22232;50.914;13.858;2023-02-19T08:28:57;97649.72;;;5.66;100.00
36190;BME280;22232;50.914;13.858;2023-02-19T08:31:25;97661.13;;;5.67;100.00
36190;BME280;22232;50.914;13.858;2023-02-19T08:33:53;97656.63;;;5.74;100.00
36190;BME280;22232;50.914;13.858;2023-02-19T08:36:21;97661.34;;;5.79;100.00
36190;BME280;22232;50.914;13.858;2023-02-19T08:38:48;97673.31;;;5.81;100.00
36190;BME280;22232;50.914;13.858;2023-02-19T08:41:16;97673.13;;;5.69;100.00
36190;BME280;22232;50.914;13.858;2023-02-19T08:43:44;97692.84;;;5.53;100.00
36190;BME280;22232;50.914;13.858;2023-02-19T08:46:11;97703.66;;;5.65;100.00
36190;BME280;22232;50.914;13.858;2023-02-19T08:48:39;97724.00;;;5.65;100.00
36190;BME280;22232;50.914;13.858;2023-02-19T08:51:09;97719.91;;;5.49;100.00
36190;BME280;22232;50.914;13.858;2023-02-19T08:53:39;97720.69;;;5.36;100.00
36190;BME280;22232;50.914;13.858;2023-02-19T08:56:09;97711.50;;;5.32;100.00
36190;BME280;22232;50.914;13.858;2023-02-19T08:58:38;97728.00;;;5.27;100.00
36190;BME280;22232;50.914;13.858;2023-02-19T09:01:10;97730.81;;;5.26;100.00
36190;BME280;22232;50.914;13.858;2023-02-19T09:03:39;97740.31;;;5.07;100.00
36190;BME280;22232;50.914;13.858;2023-02-19T09:06:09;97752.81;;;4.85;100.00
36190;BME280;22232;50.914;13.858;2023-02-19T09:08:39;97769.09;;;4.89;100.00
36190;BME280;22232;50.914;13.858;2023-02-19T09:11:07;97772.72;;;4.53;100.00
36190;BME280;22232;50.914;13.858;2023-02-19T09:13:34;97789.59;;;4.52;100.00
36190;BME280;22232;50.914;13.858;2023-02-19T09:16:06;97791.50;;;4.36;100.00
36190;BME280;22232;50.914;13.858;2023-02-19T09:18:34;97796.38;;;4.33;100.00
36190;BME280;22232;50.914;13.858;2023-02-19T09:21:03;97802.59;;;4.04;100.00
36190;BME280;22232;50.914;13.858;2023-02-19T09:23:32;97816.94;;;3.95;100.00
36190;BME280;22232;50.914;13.858;2023-02-19T09:26:01;97815.94;;;3.96;100.00
36190;BME280;22232;50.914;13.858;2023-02-19T09:28:33;97826.03;;;3.92;100.00
36190;BME280;22232;50.914;13.858;2023-02-19T09:31:05;97831.13;;;3.72;100.00
36190;BME280;22232;50.914;13.858;2023-02-19T09:33:33;97848.25;;;3.47;100.00
36190;BME280;22232;50.914;13.858;2023-02-19T09:36:01;97852.28;;;3.28;100.00
36190;BME280;22232;50.914;13.858;2023-02-19T09:38:29;97857.84;;;3.18;100.00
36190;BME280;22232;50.914;13.858;2023-02-19T09:40:58;97870.56;;;3.29;100.00
36190;BME280;22232;50.914;13.858;2023-02-19T09:43:27;97869.25;;;3.40;100.00
36190;BME280;22232;50.914;13.858;2023-02-19T09:46:03;97882.16;;;3.50;100.00
36190;BME280;22232;50.914;13.858;2023-02-19T09:48:33;97887.72;;;3.55;100.00
36190;BME280;22232;50.914;13.858;2023-02-19T09:51:01;97896.88;;;3.59;100.00
36190;BME280;22232;50.914;13.858;2023-02-19T09:53:36;97892.63;;;3.58;100.00
36190;BME280;22232;50.914;13.858;2023-02-19T09:56:06;97908.72;;;3.48;100.00
36190;BME280;22232;50.914;13.858;2023-02-19T09:58:42;97910.09;;;3.29;100.00
36190;BME280;22232;50.914;13.858;2023-02-19T10:01:10;97916.56;;;3.41;100.00
36190;BME280;22232;50.914;13.858;2023-02-19T10:03:42;97932.41;;;3.04;100.00
36190;BME280;22232;50.914;13.858;2023-02-19T10:06:15;97942.09;;;2.88;100.00
36190;BME280;22232;50.914;13.858;2023-02-19T10:08:47;97946.53;;;2.73;100.00
36190;BME280;22232;50.914;13.858;2023-02-19T10:11:17;97959.41;;;2.68;100.00
36190;BME280;22232;50.914;13.858;2023-02-19T10:13:52;97964.13;;;2.72;100.00
36190;BME280;22232;50.914;13.858;2023-02-19T10:16:24;97968.81;;;2.85;100.00
36190;BME280;22232;50.914;13.858;2023-02-19T10:18:53;97969.16;;;2.82;100.00
36190;BME280;22232;50.914;13.858;2023-02-19T10:21:25;97974.28;;;2.84;100.00
36190;BME280;22232;50.914;13.858;2023-02-19T10:23:56;97975.66;;;2.94;100.00
36190;BME280;22232;50.914;13.858;2023-02-19T10:26:26;97968.63;;;3.25;100.00
36190;BME280;22232;50.914;13.858;2023-02-19T10:28:53;97968.72;;;3.46;100.00
36190;BME280;22232;50.914;13.858;2023-02-19T10:31:23;97976.44;;;3.77;100.00
36190;BME280;22232;50.914;13.858;2023-02-19T10:33:56;97977.53;;;3.98;100.00
36190;BME280;22232;50.914;13.858;2023-02-19T10:36:42;97975.28;;;4.31;100.00
36190;BME280;22232;50.914;13.858;2023-02-19T10:41:51;97969.84;;;4.75;100.00
36190;BME280;22232;50.914;13.858;2023-02-19T10:44:26;97972.59;;;4.89;100.00
36190;BME280;22232;50.914;13.858;2023-02-19T10:46:57;97978.19;;;4.79;100.00
36190;BME280;22232;50.914;13.858;2023-02-19T10:49:27;97990.28;;;4.67;100.00
36190;BME280;22232;50.914;13.858;2023-02-19T10:52:00;97988.38;;;4.60;100.00
36190;BME280;22232;50.914;13.858;2023-02-19T10:54:31;97986.81;;;4.45;100.00
36190;BME280;22232;50.914;13.858;2023-02-19T10:59:56;98008.16;;;4.28;100.00
36190;BME280;22232;50.914;13.858;2023-02-19T11:02:25;98012.91;;;4.18;100.00
36190;BME280;22232;50.914;13.858;2023-02-19T11:05:15;98009.69;;;4.23;100.00
36190;BME280;22232;50.914;13.858;2023-02-19T11:07:48;98011.31;;;4.39;100.00
36190;BME280;22232;50.914;13.858;2023-02-19T11:10:27;98018.13;;;4.48;100.00
36190;BME280;22232;50.914;13.858;2023-02-19T11:13:02;98025.94;;;4.41;100.00
36190;BME280;22232;50.914;13.858;2023-02-19T11:15:35;98031.25;;;4.41;100.00
36190;BME280;22232;50.914;13.858;2023-02-19T11:20:54;98044.69;;;4.61;100.00
36190;BME280;22232;50.914;13.858;2023-02-19T11:25:58;98036.06;;;4.74;100.00
36190;BME280;22232;50.914;13.858;2023-02-19T11:28:36;98046.41;;;4.69;100.00
36190;BME280;22232;50.914;13.858;2023-02-19T11:31:21;98062.00;;;4.49;100.00
36190;BME280;22232;50.914;13.858;2023-02-19T11:34:02;98063.31;;;4.74;100.00
36190;BME280;22232;50.914;13.858;2023-02-19T11:37:16;98055.38;;;5.17;100.00
36190;BME280;22232;50.914;13.858;2023-02-19T11:39:46;98054.31;;;5.33;100.00
36190;BME280;22232;50.914;13.858;2023-02-19T11:42:32;98053.50;;;5.33;100.00
36190;BME280;22232;50.914;13.858;2023-02-19T11:45:51;98058.13;;;5.24;100.00
36190;BME280;22232;50.914;13.858;2023-02-19T11:48:14;98051.56;;;4.98;100.00
36190;BME280;22232;50.914;13.858;2023-02-19T11:51:18;98050.41;;;4.86;100.00
36190;BME280;22232;50.914;13.858;2023-02-19T11:56:42;98062.25;;;4.69;100.00
36190;BME280;22232;50.914;13.858;2023-02-19T11:59:22;98064.16;;;4.75;100.00
36190;BME280;22232;50.914;13.858;2023-02-19T12:02:26;98066.59;;;4.76;100.00
36190;BME280;22232;50.914;13.858;2023-02-19T12:05:08;98066.34;;;4.93;100.00
36190;BME280;22232;50.914;13.858;2023-02-19T12:08:05;98065.53;;;4.92;100.00
36190;BME280;22232;50.914;13.858;2023-02-19T12:11:09;98070.22;;;5.12;100.00
36190;BME280;22232;50.914;13.858;2023-02-19T12:16:46;98083.25;;;4.77;100.00
36190;BME280;22232;50.914;13.858;2023-02-19T12:19:21;98095.41;;;4.93;100.00
36190;BME280;22232;50.914;13.858;2023-02-19T12:30:30;98113.81;;;4.65;100.00
36190;BME280;22232;50.914;13.858;2023-02-19T12:44:18;98101.41;;;4.65;100.00
36190;BME280;22232;50.914;13.858;2023-02-19T12:46:51;98103.00;;;4.59;100.00
36190;BME280;22232;50.914;13.858;2023-02-19T12:49:34;98098.63;;;4.52;100.00
36190;BME280;22232;50.914;13.858;2023-02-19T12:52:24;98097.00;;;4.51;100.00
36190;BME280;22232;50.914;13.858;2023-02-19T12:54:55;98097.00;;;4.51;100.00
36190;BME280;22232;50.914;13.858;2023-02-19T12:57:30;98087.31;;;4.58;100.00
36190;BME280;22232;50.914;13.858;2023-02-19T13:00:12;98093.66;;;4.78;100.00
36190;BME280;22232;50.914;13.858;2023-02-19T13:02:55;98100.47;;;5.09;100.00
36190;BME280;22232;50.914;13.858;2023-02-19T13:05:46;98092.22;;;5.19;100.00
36190;BME280;22232;50.914;13.858;2023-02-19T13:08:30;98090.94;;;5.58;100.00
36190;BME280;22232;50.914;13.858;2023-02-19T13:11:04;98096.16;;;5.72;100.00
36190;BME280;22232;50.914;13.858;2023-02-19T13:13:50;98090.91;;;5.79;100.00
36190;BME280;22232;50.914;13.858;2023-02-19T13:16:22;98089.50;;;5.83;100.00
36190;BME280;22232;50.914;13.858;2023-02-19T13:18:54;98091.38;;;5.89;100.00
36190;BME280;22232;50.914;13.858;2023-02-19T13:21:27;98101.75;;;5.63;100.00
36190;BME280;22232;50.914;13.858;2023-02-19T13:24:24;98107.88;;;5.63;100.00
36190;BME280;22232;50.914;13.858;2023-02-19T13:27:09;98107.50;;;5.66;100.00
36190;BME280;22232;50.914;13.858;2023-02-19T13:37:35;98111.53;;;5.62;100.00
36190;BME280;22232;50.914;13.858;2023-02-19T13:40:20;98117.97;;;5.81;100.00
36190;BME280;22232;50.914;13.858;2023-02-19T13:42:54;98122.78;;;5.71;100.00
36190;BME280;22232;50.914;13.858;2023-02-19T13:45:43;98131.56;;;5.50;100.00
36190;BME280;22232;50.914;13.858;2023-02-19T13:53:56;98146.47;;;5.29;100.00
36190;BME280;22232;50.914;13.858;2023-02-19T14:12:31;98156.00;;;5.09;100.00
36190;BME280;22232;50.914;13.858;2023-02-19T14:17:51;98167.94;;;4.54;100.00
36190;BME280;22232;50.914;13.858;2023-02-19T14:20:43;98170.69;;;4.46;100.00
36190;BME280;22232;50.914;13.858;2023-02-19T14:23:16;98167.75;;;4.41;100.00
36190;BME280;22232;50.914;13.858;2023-02-19T14:26:10;98177.34;;;4.42;100.00
36190;BME280;22232;50.914;13.858;2023-02-19T14:28:43;98177.66;;;4.53;100.00
36190;BME280;22232;50.914;13.858;2023-02-19T14:31:23;98183.50;;;4.64;100.00
36190;BME280;22232;50.914;13.858;2023-02-19T14:33:55;98177.88;;;4.67;100.00
36190;BME280;22232;50.914;13.858;2023-02-19T14:36:43;98176.75;;;4.76;100.00
36190;BME280;22232;50.914;13.858;2023-02-19T14:39:18;98174.72;;;4.93;100.00
36190;BME280;22232;50.914;13.858;2023-02-19T14:41:56;98176.97;;;4.96;100.00
36190;BME280;22232;50.914;13.858;2023-02-19T14:44:28;98176.75;;;4.76;100.00
36190;BME280;22232;50.914;13.858;2023-02-19T14:47:01;98186.25;;;4.55;100.00
36190;BME280;22232;50.914;13.858;2023-02-19T14:49:48;98183.34;;;4.35;100.00
36190;BME280;22232;50.914;13.858;2023-02-19T14:52:20;98191.25;;;4.35;100.00